createdAt,value
2019-04-22T06:21:22.310Z,4.42
2019-04-22T06:29:13.725Z,4.08
2019-04-22T06:31:50.829Z,4.40
2019-04-22T06:34:11.895Z,4.40
2019-04-22T06:36:37.540Z,4.25
2019-04-22T06:39:13.307Z,4.40
2019-04-22T06:41:34.633Z,3.92
2019-04-22T06:44:10.948Z,4.47
2019-04-22T06:46:43.306Z,4.70
2019-04-22T06:49:09.628Z,4.17
2019-04-22T06:51:40.195Z,4.37
2019-04-22T06:54:07.792Z,4.42
2019-04-22T06:56:35.628Z,4.25
2019-04-22T06:59:08.536Z,4.30
2019-04-22T07:01:47.513Z,4.25
2019-04-22T07:04:03.233Z,4.53
2019-04-22T07:06:41.652Z,4.22
2019-04-22T07:11:36.306Z,4.28
2019-04-22T07:14:11.933Z,4.03
2019-04-22T07:16:43.498Z,4.80
2019-04-22T07:21:50.699Z,4.25
2019-04-22T07:27:04.729Z,4.37
2019-04-22T07:29:33.791Z,4.20
2019-04-22T07:57:44.556Z,4.42
2019-04-22T08:00:27.626Z,3.90
2019-04-22T09:48:37.806Z,3.98
2019-04-22T09:51:03.765Z,3.60
2019-04-22T09:53:37.601Z,3.95
2019-04-22T09:56:32.066Z,3.15
2019-04-22T10:37:46.082Z,3.50
2019-04-22T15:58:23.847Z,1.70
2019-04-22T20:09:05.731Z,2.90
2019-04-22T20:11:43.694Z,2.60
2019-04-22T20:14:19.840Z,2.67
2019-04-22T20:16:41.341Z,2.70
2019-04-22T20:19:19.158Z,2.95
2019-04-22T20:21:51.846Z,2.90
2019-04-22T20:24:11.716Z,2.75
2019-04-22T20:27:09.435Z,2.95
2019-04-22T20:29:37.860Z,2.87
2019-04-22T20:32:05.349Z,2.80
2019-04-22T20:34:38.098Z,2.87
2019-04-22T20:37:10.428Z,2.90
2019-04-22T20:39:37.956Z,2.90
2019-04-22T20:42:23.371Z,3.20
2019-04-22T20:47:09.239Z,2.90
2019-04-22T20:49:41.616Z,3.02
2019-04-22T20:52:26.677Z,3.50
2019-04-22T20:54:49.370Z,2.87
2019-04-22T20:57:32.022Z,2.65
2019-04-22T20:59:55.607Z,3.20
2019-04-22T21:02:27.810Z,2.70
2019-04-22T21:04:54.596Z,2.45
2019-04-22T21:07:31.400Z,2.95
2019-04-22T21:10:08.997Z,3.00
2019-04-22T21:12:36.272Z,3.20
2019-04-22T21:15:25.531Z,3.00
2019-04-22T21:17:45.908Z,2.77
2019-04-22T21:20:28.637Z,2.98
2019-04-22T21:23:02.836Z,2.58
2019-04-22T21:25:26.408Z,2.80
2019-04-22T21:28:11.135Z,3.00
2019-04-22T21:30:37.261Z,3.27
2019-04-22T21:33:07.940Z,2.70
2019-04-22T21:35:59.630Z,3.20
2019-04-22T21:38:14.878Z,2.80
2019-04-22T21:40:47.377Z,2.90
2019-04-22T21:43:23.965Z,2.70
2019-04-22T21:45:55.479Z,3.17
2019-04-22T21:48:31.139Z,3.00
2019-04-22T21:50:59.714Z,3.00
2019-04-22T21:53:33.070Z,3.22
2019-04-22T21:56:19.948Z,2.98
2019-04-22T21:58:31.551Z,2.72
2019-04-22T22:01:33.560Z,2.80
2019-04-22T22:03:50.628Z,2.98
2019-04-22T22:06:15.239Z,2.70
2019-04-22T22:09:07.224Z,2.70
2019-04-22T22:11:37.208Z,3.30
2019-04-22T22:14:10.313Z,2.85
2019-04-22T22:16:35.903Z,3.08
2019-04-22T22:19:11.707Z,3.20
2019-04-22T22:21:54.151Z,2.98
2019-04-22T22:24:21.137Z,3.47
2019-04-22T22:26:54.029Z,2.80
2019-04-22T22:29:29.439Z,2.83
2019-04-22T22:31:55.537Z,2.77
2019-04-22T22:34:25.007Z,3.12
2019-04-22T22:36:48.102Z,3.10
2019-04-22T22:39:17.435Z,3.17
2019-04-22T22:41:34.149Z,3.52
2019-04-22T22:44:11.378Z,3.20
2019-04-22T22:46:51.484Z,3.77
2019-04-22T22:49:28.325Z,3.00
2019-04-22T22:52:27.358Z,2.72
2019-04-22T22:54:31.754Z,2.87
2019-04-22T22:57:00.490Z,3.00
2019-04-22T22:59:33.190Z,2.83
2019-04-22T23:01:54.411Z,2.50
2019-04-22T23:04:35.587Z,3.20
2019-04-22T23:07:00.341Z,3.08
2019-04-22T23:09:30.785Z,3.20
2019-04-22T23:14:35.011Z,3.37
2019-04-22T23:16:51.486Z,3.05
2019-04-22T23:19:13.689Z,2.87
2019-04-22T23:21:46.861Z,3.47
2019-04-22T23:24:35.972Z,3.40
2019-04-22T23:27:07.483Z,3.10
2019-04-22T23:29:38.387Z,3.33
2019-04-22T23:32:09.183Z,3.60
2019-04-22T23:34:44.492Z,3.30
2019-04-22T23:37:21.686Z,3.60
2019-04-22T23:39:58.627Z,3.35
2019-04-22T23:42:27.064Z,3.90
2019-04-22T23:45:00.374Z,3.85
2019-04-22T23:47:24.279Z,3.87
2019-04-22T23:50:01.388Z,3.42
2019-04-22T23:52:37.763Z,3.90
2019-04-22T23:55:11.628Z,3.42
2019-04-22T23:57:41.863Z,3.58
